Isle of Lewis, United Kingdom
Current Conditions -  °F | °C
As of 5:20 AM on Thursday 18 Dec 2014 (Local Time) from EGPO Reporting Station
Few Clouds Few Clouds  
Wind Chill: 34°   Ceiling: Unl
Heat Index: 43°   Visibility: 6mi
Dew Point: 37°   Wind: 22mph
Humidity: 81%   Direction: 240°WSW
Pressure: 29.23"   Gusts: 33mph
Location:  58.22°N, 6.35°W
Report Text: EGPO 180520Z AUTO 24019G29KT 9999 FEW036/// 06/03 Q0990
Loading
Personal Weather Stations






























Interactive Weather Map New forecast layout! Learn more

10-Day Weather Forecast

Advertisements
Track Severe Weather on mobile